ADDS METAR Data INFO
IDs: Format: Raw Decoded Include TAF

Data at: 2332 UTC 15 Dec 2017

KJZP 152315Z AUTO 32007KT 10SM CLR M01/M05 A3015 RMK AO2 T10071050 PNO
KJZP 152255Z AUTO 32009KT 10SM CLR M01/M05 A3014 RMK AO2 T10061050 PNO
KJZP 152235Z AUTO 32008KT 10SM CLR 00/M05 A3013 RMK AO2 T10031050 PNO
KJZP 152215Z AUTO 32009KT 10SM CLR 00/M05 A3013 RMK AO2 T00001050 PNO
KJZP 152155Z AUTO 32008KT 290V350 10SM CLR 00/M05 A3012 RMK AO2 T00001048 PNO
KJZP 152135Z AUTO 30010KT 10SM CLR 00/M05 A3012 RMK AO2 T00011046 PNO
KJZP 152115Z AUTO 31010G17KT 10SM CLR 00/M05 A3011 RMK AO2 T00011048 PNO
KJZP 152055Z AUTO 30013G18KT 10SM CLR 00/M05 A3011 RMK AO2 6//// T00021047 PNO
KJZP 152035Z AUTO 31009KT 10SM CLR 00/M05 A3009 RMK AO2 T00011047 PNO
KJZP 152015Z AUTO 32010G15KT 10SM CLR 00/M05 A3009 RMK AO2 T00011046 PNO
KJZP 151955Z AUTO 31009G17KT 10SM CLR 00/M04 A3008 RMK AO2 T00031044 PNO
KJZP 151930Z AUTO 31014G18KT 10SM CLR 00/M04 A3009 RMK AO2 T00031043 PNO
KJZP 151915Z AUTO 31015G21KT 10SM CLR 01/M04 A3009 RMK AO2 T00051045 PNO
KJZP 151855Z AUTO 31011G19KT 10SM CLR 00/M04 A3009 RMK AO2 T00031043 PNO
KJZP 151835Z AUTO 33015G19KT 10SM CLR 01/M04 A3008 RMK AO2 T00051043 PNO
KJZP 151815Z AUTO 33013G20KT 10SM CLR 00/M04 A3009 RMK AO2 T00021044 PNO
KJZP 151755Z AUTO 32015KT 10SM SCT023 00/M04 A3010 RMK AO2 6//// T00021043 10008 21017 PNO
KJZP 151735Z AUTO 33013G22KT 10SM SCT023 01/M04 A3010 RMK AO2 T00051042 PNO
KJZP 151715Z AUTO 31012G19KT 10SM BKN021 00/M04 A3010 RMK AO2 T00031042 PNO
KJZP 151655Z AUTO 31008G20KT 10SM SCT019 01/M04 A3011 RMK AO2 T00051040 PNO
KJZP 151635Z AUTO 31013G22KT 10SM CLR 00/M04 A3009 RMK AO2 T10011042 PNO
KJZP 151615Z AUTO 31012G17KT 10SM SCT017 00/M04 A3009 RMK AO2 T10021040 PNO
KJZP 151555Z AUTO 31007G15KT 10SM SCT017 00/M04 A3009 RMK AO2 T10021039 PNO
KJZP 151535Z AUTO 32011G17KT 10SM SCT017 00/M04 A3008 RMK AO2 T10011038 PNO
KJZP 151515Z AUTO 30012G16KT 10SM CLR 00/M03 A3008 RMK AO2 T00001035 PNO
KJZP 151455Z AUTO 31011G17KT 10SM CLR 00/M03 A3007 RMK AO2 6//// T00001034 PNO
KJZP 151435Z AUTO 30012G16KT 10SM CLR 00/M03 A3006 RMK AO2 T10021030 PNO
KJZP 151415Z AUTO 32011G15KT 10SM CLR M01/M03 A3006 RMK AO2 T10061027 PNO
KJZP 151355Z AUTO 31008KT 10SM CLR M01/M03 A3005 RMK AO2 T10101027 PNO
KJZP 151335Z AUTO 32008KT 10SM CLR M01/M03 A3003 RMK AO2 T10121028 PNO
KJZP 151315Z AUTO 32005KT 10SM CLR M01/M03 A3003 RMK AO2 T10141027 PNO
KJZP 151255Z AUTO 32006KT 10SM CLR M01/M03 A3003 RMK AO2 T10151026 PNO
KJZP 151235Z AUTO 33004KT 10SM CLR M01/M03 A3003 RMK AO2 T10151026 PNO
KJZP 151215Z AUTO 32003KT 10SM CLR M02/M03 A3003 RMK AO2 T10161026 PNO
KJZP 151155Z AUTO 30004KT 10SM CLR M01/M02 A3003 RMK AO2 6//// 7//// T10151025 10040 21016 PNO
KJZP 151135Z AUTO 30005KT 10SM CLR M01/M03 A3001 RMK AO2 T10151026 PNO
KJZP 151115Z AUTO 30003KT 10SM CLR M01/M02 A3001 RMK AO2 T10121025 PNO
KJZP 151055Z AUTO 29004KT 10SM CLR M01/M02 A3001 RMK AO2 T10081023 PNO
KJZP 151035Z AUTO 29004KT 10SM CLR M01/M02 A3001 RMK AO2 T10071022 PNO
KJZP 151015Z AUTO 29004KT 10SM CLR 00/M02 A3001 RMK AO2 T10051021 PNO
KJZP 150955Z AUTO 32006KT 10SM CLR 00/M02 A3000 RMK AO2 T00001020 PNO
KJZP 150935Z AUTO 31005KT 10SM CLR 00/M02 A3000 RMK AO2 T00001020 PNO
KJZP 150915Z AUTO 31007KT 10SM CLR 01/M02 A3001 RMK AO2 T00061016 PNO
KJZP 150855Z AUTO 30008KT 10SM CLR 01/M01 A3001 RMK AO2 6//// T00101014 PNO
KJZP 150835Z AUTO 31007KT 10SM CLR 01/M01 A3000 RMK AO2 T00111012 PNO
KJZP 150815Z AUTO 32006KT 10SM CLR 01/M01 A3000 RMK AO2 T00141010 PNO
KJZP 150755Z AUTO 32007KT 10SM CLR 02/M01 A3000 RMK AO2 T00151010 PNO
KJZP 150735Z AUTO 33005KT 10SM CLR 02/M01 A3000 RMK AO2 T00171010 PNO
KJZP 150715Z AUTO 32007KT 10SM SCT120 02/M01 A3000 RMK AO2 T00201010 PNO
KJZP 150655Z AUTO 32006KT 10SM SCT120 02/M01 A3001 RMK AO2 T00241007 PNO
KJZP 150635Z AUTO 32005KT 10SM CLR 03/00 A3001 RMK AO2 T00301005 PNO
KJZP 150615Z AUTO 32005KT 10SM CLR 04/00 A3001 RMK AO2 T00371005 PNO
KJZP 150555Z AUTO 32005KT 10SM CLR 04/00 A3001 RMK AO2 6//// T00371004 10071 20037 401070001 PNO
KJZP 150535Z AUTO 31003KT 10SM CLR 04/00 A3001 RMK AO2 T00411002 PNO
KJZP 150515Z AUTO 31004KT 10SM CLR 04/00 A3001 RMK AO2 T00421002 PNO
KJZP 150455Z AUTO 33004KT 10SM CLR 04/00 A3001 RMK AO2 T00421002 PNO
KJZP 150435Z AUTO 31004KT 10SM CLR 04/00 A3001 RMK AO2 T00431001 PNO
KJZP 150415Z AUTO 33004KT 10SM CLR 04/00 A3001 RMK AO2 T00410000 PNO
KJZP 150355Z AUTO 32003KT 10SM CLR 04/00 A3001 RMK AO2 T00410000 PNO
KJZP 150335Z AUTO 32003KT 10SM CLR 05/00 A3001 RMK AO2 T00451001 PNO
KJZP 150315Z AUTO 34004KT 10SM CLR 05/00 A3000 RMK AO2 T00501001 PNO
KJZP 150255Z AUTO 32005KT 10SM CLR 06/00 A3000 RMK AO2 6//// T00551001 PNO
KJZP 150235Z AUTO 30005KT 10SM CLR 05/00 A3001 RMK AO2 T00501002 PNO
KJZP 150215Z AUTO 31004KT 10SM CLR 06/00 A3000 RMK AO2 T00591005 PNO
KJZP 150150Z AUTO 31004KT 10SM CLR 07/M01 A3000 RMK AO2 T00671006 PNO
KJZP 150135Z AUTO 00000KT 10SM CLR 06/00 A2999 RMK AO2 T00611005 PNO
KJZP 150115Z AUTO 00000KT 10SM CLR 07/00 A2998 RMK AO2 T00661004 PNO
KJZP 150055Z AUTO 00000KT 10SM CLR 07/00 A2998 RMK AO2 T00661005 PNO
KJZP 150035Z AUTO 31003KT 10SM CLR 06/00 A2998 RMK AO2 T00631004 PNO
KJZP 150015Z AUTO 30003KT 10SM CLR 07/00 A2997 RMK AO2 T00701003 PNO
KJZP 142355Z AUTO 00000KT 10SM CLR 07/00 A2997 RMK AO2 6//// T00711004 10107 20071 PNO
KJZP 142335Z AUTO 36003KT 10SM CLR 08/00 A2996 RMK AO2 T00751002 PNO
KJZP 142315Z AUTO 36004KT 10SM CLR 08/00 A2996 RMK AO2 T00791002 PNO
KJZP 142255Z AUTO 36003KT 10SM CLR 09/00 A2996 RMK AO2 T00851003 PNO
KJZP 142235Z AUTO 34003KT 10SM CLR 09/00 A2995 RMK AO2 T00851002 PNO
KJZP 142215Z AUTO 00000KT 10SM CLR 09/00 A2995 RMK AO2 T00901001 PNO
KJZP 142155Z AUTO 00000KT 10SM CLR 10/00 A2995 RMK AO2 T00971003 PNO
KJZP 142135Z AUTO 35003KT 10SM CLR 10/00 A2995 RMK AO2 T01001003 PNO
KJZP 142115Z AUTO 32003KT 10SM CLR 10/00 A2995 RMK AO2 T01021003 PNO
KJZP 142055Z AUTO 32005KT 10SM CLR 11/00 A2995 RMK AO2 6//// T01051004 PNO
KJZP 142035Z AUTO 28008KT 10SM CLR 11/00 A2994 RMK AO2 T01051004 PNO
KJZP 142015Z AUTO 31010KT 10SM CLR 11/00 A2994 RMK AO2 T01061004 PNO
KJZP 141955Z AUTO 29007KT 10SM CLR 11/00 A2994 RMK AO2 T01061002 PNO
KJZP 141935Z AUTO 28009KT 10SM CLR 10/00 A2994 RMK AO2 T01041005 PNO
KJZP 141915Z AUTO 30009KT 10SM CLR 10/00 A2994 RMK AO2 T01011004 PNO
KJZP 141855Z AUTO 31009G14KT 270V330 10SM CLR 10/M01 A2994 RMK AO2 T01001006 PNO
KJZP 141835Z AUTO 28006KT 10SM CLR 10/00 A2994 RMK AO2 T01021003 PNO
KJZP 141815Z AUTO 28006KT 10SM CLR 10/00 A2994 RMK AO2 T00971005 PNO
KJZP 141755Z AUTO 30008KT 270V330 10SM CLR 09/00 A2994 RMK AO2 6//// T00921004 10094 20015 PNO
KJZP 141735Z AUTO 29007KT 10SM CLR 09/M01 A2994 RMK AO2 T00901006 PNO
KJZP 141715Z AUTO 33006KT 10SM CLR 09/M01 A2994 RMK AO2 T00851007 PNO
KJZP 141655Z AUTO 30005KT 10SM CLR 08/M01 A2994 RMK AO2 T00811015 PNO
KJZP 141635Z AUTO 31007KT 10SM CLR 08/M01 A2994 RMK AO2 T00771015 PNO
KJZP 141615Z AUTO 30006KT 10SM CLR 07/M02 A2994 RMK AO2 T00691018 PNO
KJZP 141555Z AUTO 30007KT 10SM CLR 07/M02 A2994 RMK AO2 T00651016 PNO
KJZP 141535Z AUTO 31008KT 10SM CLR 06/M01 A2993 RMK AO2 T00601015 PNO
KJZP 141515Z AUTO 31007KT 10SM CLR 05/M02 A2992 RMK AO2 T00501017 PNO
KJZP 141455Z AUTO 32009KT 10SM CLR 05/M02 A2992 RMK AO2 6//// T00471018 PNO
KJZP 141435Z AUTO 30005KT 10SM CLR 04/M02 A2992 RMK AO2 T00421017 PNO
KJZP 141415Z AUTO 32006KT 10SM CLR 04/M02 A2992 RMK AO2 T00371019 PNO
KJZP 141355Z AUTO 32006KT 10SM CLR 04/M02 A2991 RMK AO2 T00351021 PNO
KJZP 141335Z AUTO 29007KT 10SM CLR 03/M02 A2991 RMK AO2 T00321022 PNO
KJZP 141315Z AUTO 30008KT 10SM CLR 03/M02 A2990 RMK AO2 T00261025 PNO
KJZP 141255Z AUTO 27004KT 10SM CLR 02/M03 A2990 RMK AO2 T00201030 PNO
KJZP 141235Z AUTO 28007KT 10SM CLR 02/M03 A2989 RMK AO2 T00231030 PNO
KJZP 141215Z AUTO 30008KT 10SM CLR 02/M03 A2989 RMK AO2 T00211030 PNO
KJZP 141155Z AUTO 28006KT 10SM CLR 02/M03 A2987 RMK AO2 6//// 7//// T00151032 10024 20001 PNO
KJZP 141135Z AUTO 31007KT 10SM CLR 01/M03 A2986 RMK AO2 T00071035 PNO